sensor_id;sensor_type;location;lat;lon;timestamp;pressure;altitude;pressure_sealevel;temperature;humidity
71504;BME280;59323;50.874;7.028;2024-02-26T00:00:41;99368.69;;;6.50;92.47
71504;BME280;59323;50.874;7.028;2024-02-26T00:03:06;99368.22;;;6.45;92.83
71504;BME280;59323;50.874;7.028;2024-02-26T00:05:31;99363.97;;;6.44;93.76
71504;BME280;59323;50.874;7.028;2024-02-26T00:07:57;99360.09;;;6.41;94.43
71504;BME280;59323;50.874;7.028;2024-02-26T00:10:22;99360.09;;;6.41;95.67
71504;BME280;59323;50.874;7.028;2024-02-26T00:12:48;99355.47;;;6.42;95.44
71504;BME280;59323;50.874;7.028;2024-02-26T00:15:13;99339.28;;;6.42;95.61
71504;BME280;59323;50.874;7.028;2024-02-26T00:17:43;99342.75;;;6.42;95.90
71504;BME280;59323;50.874;7.028;2024-02-26T00:20:10;99331.63;;;6.47;93.79
71504;BME280;59323;50.874;7.028;2024-02-26T00:22:38;99325.09;;;6.48;94.17
71504;BME280;59323;50.874;7.028;2024-02-26T00:25:04;99329.00;;;6.51;94.02
71504;BME280;59323;50.874;7.028;2024-02-26T00:27:29;99322.81;;;6.50;94.42
71504;BME280;59323;50.874;7.028;2024-02-26T00:29:55;99314.38;;;6.55;93.39
71504;BME280;59323;50.874;7.028;2024-02-26T00:32:22;99311.72;;;6.59;93.51
71504;BME280;59323;50.874;7.028;2024-02-26T00:34:48;99324.06;;;6.60;93.15
71504;BME280;59323;50.874;7.028;2024-02-26T00:37:13;99324.53;;;6.69;91.94
71504;BME280;59323;50.874;7.028;2024-02-26T00:39:38;99328.38;;;6.68;93.66
71504;BME280;59323;50.874;7.028;2024-02-26T00:42:07;99320.66;;;6.66;94.15
71504;BME280;59323;50.874;7.028;2024-02-26T00:44:32;99331.09;;;6.68;93.33
71504;BME280;59323;50.874;7.028;2024-02-26T00:46:57;99327.19;;;6.65;93.92
71504;BME280;59323;50.874;7.028;2024-02-26T00:49:23;99324.47;;;6.62;94.12
71504;BME280;59323;50.874;7.028;2024-02-26T00:51:48;99321.38;;;6.60;94.22
71504;BME280;59323;50.874;7.028;2024-02-26T00:54:13;99324.47;;;6.62;94.23
71504;BME280;59323;50.874;7.028;2024-02-26T00:56:41;99329.03;;;6.54;95.90
71504;BME280;59323;50.874;7.028;2024-02-26T00:59:06;99317.78;;;6.49;97.78
71504;BME280;59323;50.874;7.028;2024-02-26T01:01:31;99324.69;;;6.46;97.86
71504;BME280;59323;50.874;7.028;2024-02-26T01:03:59;99325.53;;;6.50;96.86
71504;BME280;59323;50.874;7.028;2024-02-26T01:06:27;99323.16;;;6.49;98.08
71504;BME280;59323;50.874;7.028;2024-02-26T01:08:55;99322.03;;;6.50;98.09
71504;BME280;59323;50.874;7.028;2024-02-26T01:11:23;99320.84;;;6.47;98.76
71504;BME280;59323;50.874;7.028;2024-02-26T01:13:48;99321.22;;;6.46;98.72
71504;BME280;59323;50.874;7.028;2024-02-26T01:16:14;99318.50;;;6.46;99.72
71504;BME280;59323;50.874;7.028;2024-02-26T01:18:39;99316.19;;;6.44;98.46
71504;BME280;59323;50.874;7.028;2024-02-26T01:21:04;99320.00;;;6.40;99.20
71504;BME280;59323;50.874;7.028;2024-02-26T01:23:33;99312.31;;;6.42;99.30
71504;BME280;59323;50.874;7.028;2024-02-26T01:25:59;99311.16;;;6.43;99.08
71504;BME280;59323;50.874;7.028;2024-02-26T01:28:24;99308.91;;;6.48;99.99
71504;BME280;59323;50.874;7.028;2024-02-26T01:30:50;99312.34;;;6.45;100.00
71504;BME280;59323;50.874;7.028;2024-02-26T01:33:15;99314.63;;;6.43;100.00
71504;BME280;59323;50.874;7.028;2024-02-26T01:35:43;99306.91;;;6.42;100.00
71504;BME280;59323;50.874;7.028;2024-02-26T01:38:08;99323.09;;;6.42;100.00
71504;BME280;59323;50.874;7.028;2024-02-26T01:40:36;99315.00;;;6.42;100.00
71504;BME280;59323;50.874;7.028;2024-02-26T01:43:04;99311.88;;;6.36;100.00
71504;BME280;59323;50.874;7.028;2024-02-26T01:45:31;99311.50;;;6.38;100.00
71504;BME280;59323;50.874;7.028;2024-02-26T01:47:57;99299.94;;;6.37;100.00
71504;BME280;59323;50.874;7.028;2024-02-26T01:50:24;99299.94;;;6.37;100.00
71504;BME280;59323;50.874;7.028;2024-02-26T01:52:50;99309.22;;;6.40;100.00
71504;BME280;59323;50.874;7.028;2024-02-26T01:55:17;99300.69;;;6.34;100.00
71504;BME280;59323;50.874;7.028;2024-02-26T01:57:48;99289.13;;;6.37;100.00
71504;BME280;59323;50.874;7.028;2024-02-26T02:00:14;99291.44;;;6.35;100.00
71504;BME280;59323;50.874;7.028;2024-02-26T02:02:41;99288.31;;;6.29;100.00
71504;BME280;59323;50.874;7.028;2024-02-26T02:05:10;99289.03;;;6.26;100.00
71504;BME280;59323;50.874;7.028;2024-02-26T02:07:40;99291.38;;;6.28;100.00
71504;BME280;59323;50.874;7.028;2024-02-26T02:10:06;99288.31;;;6.29;100.00
71504;BME280;59323;50.874;7.028;2024-02-26T02:12:34;99286.34;;;6.26;100.00
71504;BME280;59323;50.874;7.028;2024-02-26T02:15:01;99287.84;;;6.24;100.00
71504;BME280;59323;50.874;7.028;2024-02-26T02:17:27;99289.03;;;6.26;100.00
71504;BME280;59323;50.874;7.028;2024-02-26T02:19:55;99298.28;;;6.25;100.00
71504;BME280;59323;50.874;7.028;2024-02-26T02:22:20;99298.25;;;6.22;100.00
71504;BME280;59323;50.874;7.028;2024-02-26T02:24:47;99292.06;;;6.21;100.00
71504;BME280;59323;50.874;7.028;2024-02-26T02:27:12;99285.91;;;6.21;100.00
71504;BME280;59323;50.874;7.028;2024-02-26T02:29:37;99297.47;;;6.21;100.00
71504;BME280;59323;50.874;7.028;2024-02-26T02:32:03;99286.69;;;6.21;100.00
71504;BME280;59323;50.874;7.028;2024-02-26T02:34:29;99288.56;;;6.17;100.00
71504;BME280;59323;50.874;7.028;2024-02-26T02:36:55;99285.50;;;6.19;100.00
71504;BME280;59323;50.874;7.028;2024-02-26T02:39:22;99283.97;;;6.21;100.00
71504;BME280;59323;50.874;7.028;2024-02-26T02:41:48;99292.03;;;6.18;100.00
71504;BME280;59323;50.874;7.028;2024-02-26T02:44:15;99283.97;;;6.21;100.00
71504;BME280;59323;50.874;7.028;2024-02-26T02:46:41;99284.34;;;6.20;100.00
71504;BME280;59323;50.874;7.028;2024-02-26T02:49:10;99276.25;;;6.20;100.00
71504;BME280;59323;50.874;7.028;2024-02-26T02:51:37;99274.34;;;6.20;100.00
71504;BME280;59323;50.874;7.028;2024-02-26T02:54:03;99286.69;;;6.21;100.00
71504;BME280;59323;50.874;7.028;2024-02-26T02:56:29;99277.03;;;6.20;100.00
71504;BME280;59323;50.874;7.028;2024-02-26T02:58:54;99275.13;;;6.21;100.00
71504;BME280;59323;50.874;7.028;2024-02-26T03:01:19;99271.28;;;6.22;100.00
71504;BME280;59323;50.874;7.028;2024-02-26T03:03:45;99270.88;;;6.20;100.00
71504;BME280;59323;50.874;7.028;2024-02-26T03:06:10;99267.78;;;6.21;100.00
71504;BME280;59323;50.874;7.028;2024-02-26T03:08:35;99279.00;;;6.23;100.00
71504;BME280;59323;50.874;7.028;2024-02-26T03:11:07;99283.59;;;6.23;100.00
71504;BME280;59323;50.874;7.028;2024-02-26T03:13:32;99278.59;;;6.21;100.00
71504;BME280;59323;50.874;7.028;2024-02-26T03:15:57;99277.00;;;6.17;100.00
71504;BME280;59323;50.874;7.028;2024-02-26T03:18:23;99292.81;;;6.18;100.00
71504;BME280;59323;50.874;7.028;2024-02-26T03:20:49;99285.50;;;6.19;100.00
71504;BME280;59323;50.874;7.028;2024-02-26T03:23:14;99283.59;;;6.23;100.00
71504;BME280;59323;50.874;7.028;2024-02-26T03:25:43;99292.06;;;6.21;100.00
71504;BME280;59323;50.874;7.028;2024-02-26T03:28:09;99283.56;;;6.19;100.00
71504;BME280;59323;50.874;7.028;2024-02-26T03:30:34;99285.50;;;6.19;100.00
71504;BME280;59323;50.874;7.028;2024-02-26T03:32:59;99280.50;;;6.21;100.00
71504;BME280;59323;50.874;7.028;2024-02-26T03:35:25;99288.97;;;6.19;100.00
71504;BME280;59323;50.874;7.028;2024-02-26T03:37:55;99292.06;;;6.21;100.00
71504;BME280;59323;50.874;7.028;2024-02-26T03:40:22;99286.34;;;6.26;100.00
71504;BME280;59323;50.874;7.028;2024-02-26T03:42:48;99285.13;;;6.20;100.00
71504;BME280;59323;50.874;7.028;2024-02-26T03:45:13;99286.63;;;6.18;100.00
71504;BME280;59323;50.874;7.028;2024-02-26T03:47:41;99290.13;;;6.18;100.00
71504;BME280;59323;50.874;7.028;2024-02-26T03:50:09;99287.41;;;6.18;100.00
71504;BME280;59323;50.874;7.028;2024-02-26T03:52:34;99282.81;;;6.19;100.00
71504;BME280;59323;50.874;7.028;2024-02-26T03:55:00;99287.81;;;6.20;100.00
71504;BME280;59323;50.874;7.028;2024-02-26T03:57:25;99292.47;;;6.23;100.00
71504;BME280;59323;50.874;7.028;2024-02-26T03:59:50;99295.91;;;6.20;100.00
71504;BME280;59323;50.874;7.028;2024-02-26T04:02:16;99298.94;;;6.15;100.00
71504;BME280;59323;50.874;7.028;2024-02-26T04:04:41;99297.00;;;6.12;100.00
71504;BME280;59323;50.874;7.028;2024-02-26T04:07:07;99304.66;;;6.10;100.00
71504;BME280;59323;50.874;7.028;2024-02-26T04:09:32;99308.50;;;6.09;100.00
71504;BME280;59323;50.874;7.028;2024-02-26T04:11:57;99306.22;;;6.11;100.00
71504;BME280;59323;50.874;7.028;2024-02-26T04:14:22;99314.28;;;6.08;100.00
71504;BME280;59323;50.874;7.028;2024-02-26T04:16:48;99315.88;;;6.12;100.00
71504;BME280;59323;50.874;7.028;2024-02-26T04:19:17;99313.50;;;6.07;100.00
71504;BME280;59323;50.874;7.028;2024-02-26T04:21:42;99318.91;;;6.07;100.00
71504;BME280;59323;50.874;7.028;2024-02-26T04:24:09;99314.25;;;6.04;100.00
71504;BME280;59323;50.874;7.028;2024-02-26T04:26:35;99321.19;;;6.05;100.00
71504;BME280;59323;50.874;7.028;2024-02-26T04:29:02;99316.53;;;6.02;100.00
71504;BME280;59323;50.874;7.028;2024-02-26T04:31:28;99319.97;;;5.99;100.00
71504;BME280;59323;50.874;7.028;2024-02-26T04:33:53;99336.13;;;5.99;100.00
71504;BME280;59323;50.874;7.028;2024-02-26T04:36:21;99326.88;;;5.96;100.00
71504;BME280;59323;50.874;7.028;2024-02-26T04:38:47;99330.78;;;6.02;100.00
71504;BME280;59323;50.874;7.028;2024-02-26T04:41:14;99329.59;;;6.00;100.00
71504;BME280;59323;50.874;7.028;2024-02-26T04:43:40;99332.28;;;6.00;100.00
71504;BME280;59323;50.874;7.028;2024-02-26T04:46:08;99324.56;;;5.98;100.00
71504;BME280;59323;50.874;7.028;2024-02-26T04:48:34;99330.38;;;6.00;100.00
71504;BME280;59323;50.874;7.028;2024-02-26T04:50:59;99334.22;;;5.99;100.00
71504;BME280;59323;50.874;7.028;2024-02-26T04:53:25;99343.81;;;5.97;100.00
71504;BME280;59323;50.874;7.028;2024-02-26T04:55:51;99344.19;;;5.95;100.00
71504;BME280;59323;50.874;7.028;2024-02-26T04:58:19;99334.06;;;5.89;100.00
71504;BME280;59323;50.874;7.028;2024-02-26T05:00:44;99349.91;;;5.90;100.00
71504;BME280;59323;50.874;7.028;2024-02-26T05:03:12;99338.69;;;5.88;100.00
71504;BME280;59323;50.874;7.028;2024-02-26T05:05:44;99334.06;;;5.89;100.00
71504;BME280;59323;50.874;7.028;2024-02-26T05:08:11;99336.41;;;5.90;100.00
71504;BME280;59323;50.874;7.028;2024-02-26T05:10:37;99335.97;;;5.88;100.00
71504;BME280;59323;50.874;7.028;2024-02-26T05:13:06;99340.59;;;5.88;100.00
71504;BME280;59323;50.874;7.028;2024-02-26T05:15:34;99336.28;;;5.83;100.00
71504;BME280;59323;50.874;7.028;2024-02-26T05:17:59;99339.34;;;5.82;100.00
71504;BME280;59323;50.874;7.028;2024-02-26T05:20:25;99331.56;;;5.77;100.00
71504;BME280;59323;50.874;7.028;2024-02-26T05:22:50;99331.97;;;5.79;100.00
71504;BME280;59323;50.874;7.028;2024-02-26T05:25:16;99326.59;;;5.79;100.00
71504;BME280;59323;50.874;7.028;2024-02-26T05:27:43;99327.69;;;5.74;100.00
71504;BME280;59323;50.874;7.028;2024-02-26T05:30:09;99333.81;;;5.71;100.00
71504;BME280;59323;50.874;7.028;2024-02-26T05:32:34;99334.19;;;5.69;100.00
71504;BME280;59323;50.874;7.028;2024-02-26T05:35:03;99335.31;;;5.68;100.00
71504;BME280;59323;50.874;7.028;2024-02-26T05:37:33;99334.19;;;5.69;100.00
71504;BME280;59323;50.874;7.028;2024-02-26T05:39:59;99341.91;;;5.71;100.00
71504;BME280;59323;50.874;7.028;2024-02-26T05:42:24;99341.53;;;5.72;100.00
71504;BME280;59323;50.874;7.028;2024-02-26T05:44:49;99336.47;;;5.67;100.00
71504;BME280;59323;50.874;7.028;2024-02-26T05:47:15;99338.78;;;5.69;100.00
71504;BME280;59323;50.874;7.028;2024-02-26T05:49:40;99343.41;;;5.68;100.00
71504;BME280;59323;50.874;7.028;2024-02-26T05:52:06;99350.75;;;5.71;100.00
71504;BME280;59323;50.874;7.028;2024-02-26T05:54:34;99349.94;;;5.67;100.00
71504;BME280;59323;50.874;7.028;2024-02-26T05:57:01;99349.16;;;5.67;100.00
71504;BME280;59323;50.874;7.028;2024-02-26T05:59:27;99357.59;;;5.65;100.00
71504;BME280;59323;50.874;7.028;2024-02-26T06:01:52;99360.31;;;5.65;100.00
71504;BME280;59323;50.874;7.028;2024-02-26T06:04:18;99366.06;;;5.64;100.00
71504;BME280;59323;50.874;7.028;2024-02-26T06:06:46;99366.84;;;5.64;100.00
71504;BME280;59323;50.874;7.028;2024-02-26T06:09:11;99369.91;;;5.63;100.00
71504;BME280;59323;50.874;7.028;2024-02-26T06:11:39;99369.16;;;5.66;100.00
71504;BME280;59323;50.874;7.028;2024-02-26T06:14:04;99369.53;;;5.64;100.00
71504;BME280;59323;50.874;7.028;2024-02-26T06:16:30;99366.84;;;5.64;100.00
71504;BME280;59323;50.874;7.028;2024-02-26T06:18:55;99370.66;;;5.63;100.00
71504;BME280;59323;50.874;7.028;2024-02-26T06:21:21;99374.50;;;5.62;100.00
71504;BME280;59323;50.874;7.028;2024-02-26T06:23:49;99379.53;;;5.64;100.00
71504;BME280;59323;50.874;7.028;2024-02-26T06:26:15;99379.16;;;5.65;100.00
71504;BME280;59323;50.874;7.028;2024-02-26T06:28:41;99371.44;;;5.64;100.00
71504;BME280;59323;50.874;7.028;2024-02-26T06:31:06;99378.75;;;5.63;100.00
71504;BME280;59323;50.874;7.028;2024-02-26T06:33:32;99385.28;;;5.62;100.00
71504;BME280;59323;50.874;7.028;2024-02-26T06:35:57;99385.34;;;5.66;100.00
71504;BME280;59323;50.874;7.028;2024-02-26T06:38:26;99395.34;;;5.65;100.00
71504;BME280;59323;50.874;7.028;2024-02-26T06:40:54;99396.13;;;5.66;100.00
71504;BME280;59323;50.874;7.028;2024-02-26T06:43:19;99395.38;;;5.69;100.00
71504;BME280;59323;50.874;7.028;2024-02-26T06:45:44;99402.69;;;5.68;100.00
71504;BME280;59323;50.874;7.028;2024-02-26T06:48:10;99410.41;;;5.70;100.00
71504;BME280;59323;50.874;7.028;2024-02-26T06:50:35;99419.59;;;5.65;100.00
71504;BME280;59323;50.874;7.028;2024-02-26T06:53:01;99426.53;;;5.66;100.00
71504;BME280;59323;50.874;7.028;2024-02-26T06:55:26;99417.63;;;5.62;100.00
71504;BME280;59323;50.874;7.028;2024-02-26T06:57:51;99429.13;;;5.59;100.00
71504;BME280;59323;50.874;7.028;2024-02-26T07:00:17;99423.72;;;5.59;100.00
71504;BME280;59323;50.874;7.028;2024-02-26T07:02:43;99430.72;;;5.64;100.00
71504;BME280;59323;50.874;7.028;2024-02-26T07:05:15;99431.16;;;5.66;100.00
71504;BME280;59323;50.874;7.028;2024-02-26T07:07:44;99431.50;;;5.64;100.00
71504;BME280;59323;50.874;7.028;2024-02-26T07:10:10;99439.59;;;5.64;100.00
71504;BME280;59323;50.874;7.028;2024-02-26T07:12:37;99431.16;;;5.66;100.00
71504;BME280;59323;50.874;7.028;2024-02-26T07:15:03;99441.88;;;5.62;100.00
71504;BME280;59323;50.874;7.028;2024-02-26T07:17:30;99448.41;;;5.61;100.00
71504;BME280;59323;50.874;7.028;2024-02-26T07:19:55;99446.44;;;5.58;100.00
71504;BME280;59323;50.874;7.028;2024-02-26T07:22:21;99449.13;;;5.58;100.00
71504;BME280;59323;50.874;7.028;2024-02-26T07:24:46;99445.28;;;5.59;100.00
71504;BME280;59323;50.874;7.028;2024-02-26T07:27:12;99450.69;;;5.59;100.00
71504;BME280;59323;50.874;7.028;2024-02-26T07:29:37;99455.34;;;5.62;100.00
71504;BME280;59323;50.874;7.028;2024-02-26T07:32:07;99454.22;;;5.63;100.00
71504;BME280;59323;50.874;7.028;2024-02-26T07:34:35;99457.69;;;5.64;100.00
71504;BME280;59323;50.874;7.028;2024-02-26T07:37:02;99463.44;;;5.62;100.00
71504;BME280;59323;50.874;7.028;2024-02-26T07:39:28;99461.50;;;5.63;100.00
71504;BME280;59323;50.874;7.028;2024-02-26T07:41:56;99455.41;;;5.66;100.00
71504;BME280;59323;50.874;7.028;2024-02-26T07:44:21;99461.50;;;5.63;100.00
71504;BME280;59323;50.874;7.028;2024-02-26T07:46:46;99458.03;;;5.62;100.00
71504;BME280;59323;50.874;7.028;2024-02-26T07:49:12;99464.16;;;5.59;100.00
71504;BME280;59323;50.874;7.028;2024-02-26T07:51:39;99468.75;;;5.59;100.00
71504;BME280;59323;50.874;7.028;2024-02-26T07:54:05;99471.47;;;5.59;100.00
71504;BME280;59323;50.874;7.028;2024-02-26T07:56:30;99471.88;;;5.61;100.00
71504;BME280;59323;50.874;7.028;2024-02-26T07:58:55;99475.34;;;5.61;100.00
71504;BME280;59323;50.874;7.028;2024-02-26T08:01:21;99473.75;;;5.57;100.00
71504;BME280;59323;50.874;7.028;2024-02-26T08:03:51;99472.25;;;5.59;100.00
71504;BME280;59323;50.874;7.028;2024-02-26T08:06:21;99483.00;;;5.59;100.00
71504;BME280;59323;50.874;7.028;2024-02-26T08:08:49;99476.91;;;5.62;100.00
71504;BME280;59323;50.874;7.028;2024-02-26T08:11:17;99478.47;;;5.63;100.00
71504;BME280;59323;50.874;7.028;2024-02-26T08:13:47;99492.72;;;5.64;100.00
71504;BME280;59323;50.874;7.028;2024-02-26T08:16:17;99493.06;;;5.62;100.00
71504;BME280;59323;50.874;7.028;2024-02-26T08:18:45;99486.91;;;5.62;100.00
71504;BME280;59323;50.874;7.028;2024-02-26T08:21:10;99486.13;;;5.61;100.00
71504;BME280;59323;50.874;7.028;2024-02-26T08:23:36;99498.03;;;5.60;100.00
71504;BME280;59323;50.874;7.028;2024-02-26T08:26:01;99506.91;;;5.61;100.00
71504;BME280;59323;50.874;7.028;2024-02-26T08:28:31;99498.47;;;5.62;100.00
71504;BME280;59323;50.874;7.028;2024-02-26T08:30:57;99518.53;;;5.65;100.00
71504;BME280;59323;50.874;7.028;2024-02-26T08:33:22;99526.97;;;5.63;100.00
71504;BME280;59323;50.874;7.028;2024-02-26T08:35:47;99531.22;;;5.64;100.00
71504;BME280;59323;50.874;7.028;2024-02-26T08:38:13;99521.16;;;5.61;100.00
71504;BME280;59323;50.874;7.028;2024-02-26T08:40:38;99520.78;;;5.63;100.00
71504;BME280;59323;50.874;7.028;2024-02-26T08:43:04;99532.78;;;5.65;100.00
71504;BME280;59323;50.874;7.028;2024-02-26T08:45:30;99530.44;;;5.64;100.00
71504;BME280;59323;50.874;7.028;2024-02-26T08:47:57;99544.69;;;5.64;100.00
71504;BME280;59323;50.874;7.028;2024-02-26T08:50:24;99536.97;;;5.63;100.00
71504;BME280;59323;50.874;7.028;2024-02-26T08:52:49;99538.94;;;5.66;100.00
71504;BME280;59323;50.874;7.028;2024-02-26T08:55:16;99536.31;;;5.69;100.00
71504;BME280;59323;50.874;7.028;2024-02-26T08:57:42;99546.66;;;5.67;100.00
71504;BME280;59323;50.874;7.028;2024-02-26T09:00:07;99550.50;;;5.66;100.00
71504;BME280;59323;50.874;7.028;2024-02-26T09:02:33;99548.16;;;5.65;100.00
71504;BME280;59323;50.874;7.028;2024-02-26T09:05:04;99551.63;;;5.65;100.00
71504;BME280;59323;50.874;7.028;2024-02-26T09:07:33;99554.69;;;5.64;100.00
71504;BME280;59323;50.874;7.028;2024-02-26T09:09:59;99559.31;;;5.63;100.00
71504;BME280;59323;50.874;7.028;2024-02-26T09:12:24;99563.91;;;5.63;100.00
71504;BME280;59323;50.874;7.028;2024-02-26T09:14:49;99558.53;;;5.63;100.00
71504;BME280;59323;50.874;7.028;2024-02-26T09:17:17;99565.81;;;5.62;100.00
71504;BME280;59323;50.874;7.028;2024-02-26T09:19:47;99564.22;;;5.58;100.00
71504;BME280;59323;50.874;7.028;2024-02-26T09:22:27;99573.91;;;5.62;100.00
71504;BME280;59323;50.874;7.028;2024-02-26T09:25:04;99581.94;;;5.59;100.00
71504;BME280;59323;50.874;7.028;2024-02-26T09:27:31;99580.81;;;5.60;100.00
71504;BME280;59323;50.874;7.028;2024-02-26T09:29:57;99592.78;;;5.62;100.00
71504;BME280;59323;50.874;7.028;2024-02-26T09:32:22;99593.91;;;5.61;100.00
71504;BME280;59323;50.874;7.028;2024-02-26T09:34:56;99594.28;;;5.60;100.00
71504;BME280;59323;50.874;7.028;2024-02-26T09:37:26;99596.97;;;5.60;100.00
71504;BME280;59323;50.874;7.028;2024-02-26T09:39:53;99590.81;;;5.59;100.00
71504;BME280;59323;50.874;7.028;2024-02-26T09:42:19;99595.47;;;5.62;100.00
71504;BME280;59323;50.874;7.028;2024-02-26T09:44:50;99596.97;;;5.60;100.00
71504;BME280;59323;50.874;7.028;2024-02-26T09:47:16;99604.28;;;5.59;100.00
71504;BME280;59323;50.874;7.028;2024-02-26T09:49:43;99608.88;;;5.59;100.00
71504;BME280;59323;50.874;7.028;2024-02-26T09:52:09;99608.16;;;5.62;100.00
71504;BME280;59323;50.874;7.028;2024-02-26T09:54:35;99616.03;;;5.70;100.00
71504;BME280;59323;50.874;7.028;2024-02-26T09:57:03;99614.03;;;5.67;100.00
71504;BME280;59323;50.874;7.028;2024-02-26T09:59:41;99617.09;;;5.66;100.00
71504;BME280;59323;50.874;7.028;2024-02-26T10:02:14;99622.53;;;5.69;100.00
71504;BME280;59323;50.874;7.028;2024-02-26T10:04:41;99624.53;;;5.72;100.00
71504;BME280;59323;50.874;7.028;2024-02-26T10:07:10;99618.78;;;5.74;100.00
71504;BME280;59323;50.874;7.028;2024-02-26T10:09:36;99621.06;;;5.72;100.00
71504;BME280;59323;50.874;7.028;2024-02-26T10:12:07;99628.00;;;5.73;100.00
71504;BME280;59323;50.874;7.028;2024-02-26T10:14:36;99628.78;;;5.73;100.00
71504;BME280;59323;50.874;7.028;2024-02-26T10:17:06;99627.28;;;5.76;100.00
71504;BME280;59323;50.874;7.028;2024-02-26T10:19:33;99635.44;;;5.80;100.00
71504;BME280;59323;50.874;7.028;2024-02-26T10:22:11;99632.38;;;5.81;100.00
71504;BME280;59323;50.874;7.028;2024-02-26T10:25:00;99637.75;;;5.81;100.00
71504;BME280;59323;50.874;7.028;2024-02-26T10:27:34;99640.53;;;5.85;100.00
71504;BME280;59323;50.874;7.028;2024-02-26T10:30:03;99643.66;;;5.87;100.00
71504;BME280;59323;50.874;7.028;2024-02-26T10:32:28;99647.28;;;5.94;100.00
71504;BME280;59323;50.874;7.028;2024-02-26T10:34:58;99642.31;;;5.96;100.00
71504;BME280;59323;50.874;7.028;2024-02-26T10:37:51;99648.97;;;6.02;100.00
71504;BME280;59323;50.874;7.028;2024-02-26T10:40:26;99646.44;;;6.13;100.00
71504;BME280;59323;50.874;7.028;2024-02-26T10:42:55;99646.84;;;6.15;100.00
71504;BME280;59323;50.874;7.028;2024-02-26T10:45:28;99650.38;;;6.19;100.00
71504;BME280;59323;50.874;7.028;2024-02-26T10:48:05;99651.22;;;6.23;100.00
71504;BME280;59323;50.874;7.028;2024-02-26T10:50:34;99659.78;;;6.29;100.00
71504;BME280;59323;50.874;7.028;2024-02-26T10:53:00;99660.56;;;6.29;100.00
71504;BME280;59323;50.874;7.028;2024-02-26T10:55:25;99662.53;;;6.32;100.00
71504;BME280;59323;50.874;7.028;2024-02-26T10:57:55;99671.47;;;6.36;100.00
71504;BME280;59323;50.874;7.028;2024-02-26T11:00:21;99679.97;;;6.39;100.00
71504;BME280;59323;50.874;7.028;2024-02-26T11:02:47;99674.94;;;6.37;100.00
71504;BME280;59323;50.874;7.028;2024-02-26T11:05:14;99674.22;;;6.40;100.00
71504;BME280;59323;50.874;7.028;2024-02-26T11:07:41;99688.56;;;6.44;100.00
71504;BME280;59323;50.874;7.028;2024-02-26T11:10:07;99685.13;;;6.47;100.00
71504;BME280;59323;50.874;7.028;2024-02-26T11:12:34;99689.47;;;6.52;100.00
71504;BME280;59323;50.874;7.028;2024-02-26T11:15:03;99690.16;;;6.49;100.00
71504;BME280;59323;50.874;7.028;2024-02-26T11:17:29;99690.94;;;6.49;100.00
71504;BME280;59323;50.874;7.028;2024-02-26T11:19:59;99692.53;;;6.50;100.00
71504;BME280;59323;50.874;7.028;2024-02-26T11:22:25;99698.34;;;6.52;100.00
71504;BME280;59323;50.874;7.028;2024-02-26T11:24:55;99697.97;;;6.54;100.00
71504;BME280;59323;50.874;7.028;2024-02-26T11:27:26;99706.13;;;6.57;100.00
71504;BME280;59323;50.874;7.028;2024-02-26T11:29:59;99704.69;;;6.63;100.00
71504;BME280;59323;50.874;7.028;2024-02-26T11:32:29;99711.28;;;6.66;100.00
71504;BME280;59323;50.874;7.028;2024-02-26T11:34:56;99713.66;;;6.71;100.00
71504;BME280;59323;50.874;7.028;2024-02-26T11:37:22;99712.47;;;6.68;100.00
71504;BME280;59323;50.874;7.028;2024-02-26T11:39:51;99723.44;;;6.79;100.00
71504;BME280;59323;50.874;7.028;2024-02-26T11:42:17;99724.88;;;6.73;100.00
71504;BME280;59323;50.874;7.028;2024-02-26T11:44:43;99725.66;;;6.74;100.00
71504;BME280;59323;50.874;7.028;2024-02-26T11:47:13;99722.19;;;6.73;100.00
71504;BME280;59323;50.874;7.028;2024-02-26T11:49:39;99720.25;;;6.74;100.00
71504;BME280;59323;50.874;7.028;2024-02-26T11:52:07;99720.66;;;6.76;100.00
71504;BME280;59323;50.874;7.028;2024-02-26T11:54:49;99723.00;;;6.77;100.00
71504;BME280;59323;50.874;7.028;2024-02-26T11:57:27;99721.09;;;6.78;100.00
71504;BME280;59323;50.874;7.028;2024-02-26T11:59:55;99715.31;;;6.79;100.00
71504;BME280;59323;50.874;7.028;2024-02-26T12:05:16;99722.38;;;6.87;100.00
71504;BME280;59323;50.874;7.028;2024-02-26T12:07:44;99726.69;;;6.92;100.00
71504;BME280;59323;50.874;7.028;2024-02-26T12:10:36;99723.63;;;6.93;100.00
71504;BME280;59323;50.874;7.028;2024-02-26T12:13:13;99731.00;;;6.96;100.00
71504;BME280;59323;50.874;7.028;2024-02-26T12:15:43;99729.13;;;7.00;100.00
71504;BME280;59323;50.874;7.028;2024-02-26T12:18:09;99730.72;;;7.05;100.00
71504;BME280;59323;50.874;7.028;2024-02-26T12:20:36;99735.78;;;7.07;100.00
71504;BME280;59323;50.874;7.028;2024-02-26T12:23:05;99745.03;;;7.06;100.00
71504;BME280;59323;50.874;7.028;2024-02-26T12:25:33;99747.34;;;7.07;100.00
71504;BME280;59323;50.874;7.028;2024-02-26T12:27:59;99746.25;;;7.12;100.00
71504;BME280;59323;50.874;7.028;2024-02-26T12:30:25;99753.63;;;7.15;100.00
71504;BME280;59323;50.874;7.028;2024-02-26T12:32:52;99751.66;;;7.12;100.00
71504;BME280;59323;50.874;7.028;2024-02-26T12:35:26;99762.41;;;7.08;100.00
71504;BME280;59323;50.874;7.028;2024-02-26T12:37:53;99769.06;;;7.14;100.00
71504;BME280;59323;50.874;7.028;2024-02-26T12:40:21;99767.50;;;7.13;100.00
71504;BME280;59323;50.874;7.028;2024-02-26T12:42:47;99771.44;;;7.16;100.00
71504;BME280;59323;50.874;7.028;2024-02-26T12:45:15;99777.63;;;7.16;100.00
71504;BME280;59323;50.874;7.028;2024-02-26T12:47:42;99785.78;;;7.20;100.00
71504;BME280;59323;50.874;7.028;2024-02-26T12:50:10;99782.75;;;7.25;100.00
71504;BME280;59323;50.874;7.028;2024-02-26T12:52:40;99788.53;;;7.23;100.00
71504;BME280;59323;50.874;7.028;2024-02-26T12:55:06;99794.28;;;7.22;100.00
71504;BME280;59323;50.874;7.028;2024-02-26T12:57:38;99800.09;;;7.24;100.00
71504;BME280;59323;50.874;7.028;2024-02-26T13:00:05;99802.41;;;7.22;100.00
71504;BME280;59323;50.874;7.028;2024-02-26T13:02:34;99800.44;;;7.19;100.00
71504;BME280;59323;50.874;7.028;2024-02-26T13:05:02;99803.19;;;7.22;100.00